sensor_id;sensor_type;location;lat;lon;timestamp;P1;durP1;ratioP1;P2;durP2;ratioP2
22768;SDS011;13001;51.968;5.918;2022-11-20T00:00:18;882.17;;;807.33;;
22768;SDS011;13001;51.968;5.918;2022-11-20T00:02:45;879.37;;;804.43;;
22768;SDS011;13001;51.968;5.918;2022-11-20T00:05:12;884.67;;;809.43;;
22768;SDS011;13001;51.968;5.918;2022-11-20T00:07:39;894.50;;;817.97;;
22768;SDS011;13001;51.968;5.918;2022-11-20T00:10:07;894.93;;;818.00;;
22768;SDS011;13001;51.968;5.918;2022-11-20T00:12:36;894.13;;;816.87;;
22768;SDS011;13001;51.968;5.918;2022-11-20T00:15:03;898.67;;;820.87;;
22768;SDS011;13001;51.968;5.918;2022-11-20T00:17:30;843.37;;;770.40;;
22768;SDS011;13001;51.968;5.918;2022-11-20T00:19:58;808.17;;;739.17;;
22768;SDS011;13001;51.968;5.918;2022-11-20T00:22:25;828.13;;;756.23;;
22768;SDS011;13001;51.968;5.918;2022-11-20T00:24:53;832.83;;;759.50;;
22768;SDS011;13001;51.968;5.918;2022-11-20T00:27:20;866.87;;;789.23;;
22768;SDS011;13001;51.968;5.918;2022-11-20T00:29:47;887.47;;;806.33;;
22768;SDS011;13001;51.968;5.918;2022-11-20T00:32:15;892.43;;;810.43;;
22768;SDS011;13001;51.968;5.918;2022-11-20T00:34:42;909.00;;;825.37;;
22768;SDS011;13001;51.968;5.918;2022-11-20T00:37:09;873.57;;;794.07;;
22768;SDS011;13001;51.968;5.918;2022-11-20T00:39:36;884.40;;;803.17;;
22768;SDS011;13001;51.968;5.918;2022-11-20T00:42:04;912.83;;;828.10;;
22768;SDS011;13001;51.968;5.918;2022-11-20T00:44:31;910.27;;;826.03;;
22768;SDS011;13001;51.968;5.918;2022-11-20T00:46:58;923.20;;;838.33;;
22768;SDS011;13001;51.968;5.918;2022-11-20T00:49:25;945.30;;;856.43;;
22768;SDS011;13001;51.968;5.918;2022-11-20T00:51:53;901.67;;;819.07;;
22768;SDS011;13001;51.968;5.918;2022-11-20T00:54:20;935.23;;;848.83;;
22768;SDS011;13001;51.968;5.918;2022-11-20T00:56:47;882.90;;;803.50;;
22768;SDS011;13001;51.968;5.918;2022-11-20T00:59:14;884.40;;;804.53;;
22768;SDS011;13001;51.968;5.918;2022-11-20T01:01:44;909.00;;;825.10;;
22768;SDS011;13001;51.968;5.918;2022-11-20T01:04:12;899.63;;;817.53;;
22768;SDS011;13001;51.968;5.918;2022-11-20T01:06:41;917.43;;;833.17;;
22768;SDS011;13001;51.968;5.918;2022-11-20T01:09:13;926.73;;;841.57;;
22768;SDS011;13001;51.968;5.918;2022-11-20T01:11:38;898.33;;;816.87;;
22768;SDS011;13001;51.968;5.918;2022-11-20T01:14:07;906.43;;;824.77;;
22768;SDS011;13001;51.968;5.918;2022-11-20T01:16:36;882.90;;;804.23;;
22768;SDS011;13001;51.968;5.918;2022-11-20T01:19:04;902.63;;;820.60;;
22768;SDS011;13001;51.968;5.918;2022-11-20T01:21:33;882.07;;;803.80;;
22768;SDS011;13001;51.968;5.918;2022-11-20T01:24:01;899.63;;;818.43;;
22768;SDS011;13001;51.968;5.918;2022-11-20T01:26:29;897.33;;;816.80;;
22768;SDS011;13001;51.968;5.918;2022-11-20T01:28:57;879.53;;;801.70;;
22768;SDS011;13001;51.968;5.918;2022-11-20T01:31:26;874.90;;;797.47;;
22768;SDS011;13001;51.968;5.918;2022-11-20T01:33:55;865.43;;;789.83;;
22768;SDS011;13001;51.968;5.918;2022-11-20T01:36:24;846.00;;;773.97;;
22768;SDS011;13001;51.968;5.918;2022-11-20T01:38:52;872.90;;;796.30;;
22768;SDS011;13001;51.968;5.918;2022-11-20T01:41:20;901.70;;;821.23;;
22768;SDS011;13001;51.968;5.918;2022-11-20T01:44:06;929.70;;;845.30;;
22768;SDS011;13001;51.968;5.918;2022-11-20T01:46:38;930.97;;;846.57;;
22768;SDS011;13001;51.968;5.918;2022-11-20T01:49:20;874.87;;;798.67;;
22768;SDS011;13001;51.968;5.918;2022-11-20T01:51:50;872.97;;;797.50;;
22768;SDS011;13001;51.968;5.918;2022-11-20T01:54:19;870.57;;;794.97;;
22768;SDS011;13001;51.968;5.918;2022-11-20T01:56:47;872.80;;;797.57;;
22768;SDS011;13001;51.968;5.918;2022-11-20T01:59:15;909.53;;;827.57;;
22768;SDS011;13001;51.968;5.918;2022-11-20T02:01:44;913.50;;;830.90;;
22768;SDS011;13001;51.968;5.918;2022-11-20T02:04:11;926.83;;;842.93;;
22768;SDS011;13001;51.968;5.918;2022-11-20T02:06:42;917.87;;;834.43;;
22768;SDS011;13001;51.968;5.918;2022-11-20T02:09:11;946.63;;;859.07;;
22768;SDS011;13001;51.968;5.918;2022-11-20T02:11:38;936.43;;;851.30;;
22768;SDS011;13001;51.968;5.918;2022-11-20T02:14:05;948.30;;;860.80;;
22768;SDS011;13001;51.968;5.918;2022-11-20T02:16:37;955.00;;;866.80;;
22768;SDS011;13001;51.968;5.918;2022-11-20T02:19:01;909.80;;;828.67;;
22768;SDS011;13001;51.968;5.918;2022-11-20T02:24:15;912.03;;;830.97;;
22768;SDS011;13001;51.968;5.918;2022-11-20T02:26:57;887.73;;;810.93;;
22768;SDS011;13001;51.968;5.918;2022-11-20T02:29:29;865.47;;;791.03;;
22768;SDS011;13001;51.968;5.918;2022-11-20T02:31:56;886.40;;;808.50;;
22768;SDS011;13001;51.968;5.918;2022-11-20T02:34:24;908.83;;;828.00;;
22768;SDS011;13001;51.968;5.918;2022-11-20T02:36:52;883.63;;;807.33;;
22768;SDS011;13001;51.968;5.918;2022-11-20T02:39:20;897.17;;;818.67;;
22768;SDS011;13001;51.968;5.918;2022-11-20T02:41:47;898.13;;;819.07;;
22768;SDS011;13001;51.968;5.918;2022-11-20T02:44:14;896.03;;;817.97;;
22768;SDS011;13001;51.968;5.918;2022-11-20T02:46:42;933.13;;;849.07;;
22768;SDS011;13001;51.968;5.918;2022-11-20T02:49:09;909.53;;;828.83;;
22768;SDS011;13001;51.968;5.918;2022-11-20T02:51:36;876.73;;;801.60;;
22768;SDS011;13001;51.968;5.918;2022-11-20T02:54:03;865.33;;;791.67;;
22768;SDS011;13001;51.968;5.918;2022-11-20T02:56:31;853.90;;;781.50;;
22768;SDS011;13001;51.968;5.918;2022-11-20T02:58:58;846.47;;;774.33;;
22768;SDS011;13001;51.968;5.918;2022-11-20T03:01:25;885.33;;;808.23;;
22768;SDS011;13001;51.968;5.918;2022-11-20T03:03:52;890.93;;;813.20;;
22768;SDS011;13001;51.968;5.918;2022-11-20T03:06:21;871.50;;;796.93;;
22768;SDS011;13001;51.968;5.918;2022-11-20T03:08:48;891.47;;;813.07;;
22768;SDS011;13001;51.968;5.918;2022-11-20T03:11:15;920.37;;;838.23;;
22768;SDS011;13001;51.968;5.918;2022-11-20T03:13:43;928.20;;;844.50;;
22768;SDS011;13001;51.968;5.918;2022-11-20T03:16:16;898.03;;;819.57;;
22768;SDS011;13001;51.968;5.918;2022-11-20T03:18:39;859.23;;;785.87;;
22768;SDS011;13001;51.968;5.918;2022-11-20T03:21:07;857.33;;;784.10;;
22768;SDS011;13001;51.968;5.918;2022-11-20T03:23:35;896.97;;;817.67;;
22768;SDS011;13001;51.968;5.918;2022-11-20T03:26:09;926.90;;;842.87;;
22768;SDS011;13001;51.968;5.918;2022-11-20T03:28:37;911.43;;;828.83;;
22768;SDS011;13001;51.968;5.918;2022-11-20T03:31:05;924.20;;;840.57;;
22768;SDS011;13001;51.968;5.918;2022-11-20T03:33:34;945.23;;;858.90;;
22768;SDS011;13001;51.968;5.918;2022-11-20T03:36:05;888.83;;;811.13;;
22768;SDS011;13001;51.968;5.918;2022-11-20T03:38:33;908.47;;;827.27;;
22768;SDS011;13001;51.968;5.918;2022-11-20T03:41:02;923.67;;;839.50;;
22768;SDS011;13001;51.968;5.918;2022-11-20T03:43:30;893.63;;;814.20;;
22768;SDS011;13001;51.968;5.918;2022-11-20T03:45:57;878.43;;;802.03;;
22768;SDS011;13001;51.968;5.918;2022-11-20T03:48:25;861.37;;;787.17;;
22768;SDS011;13001;51.968;5.918;2022-11-20T03:50:53;863.13;;;789.07;;
22768;SDS011;13001;51.968;5.918;2022-11-20T03:53:22;863.40;;;789.50;;
22768;SDS011;13001;51.968;5.918;2022-11-20T03:55:52;860.67;;;786.43;;
22768;SDS011;13001;51.968;5.918;2022-11-20T03:58:19;895.17;;;815.53;;
22768;SDS011;13001;51.968;5.918;2022-11-20T04:00:46;924.13;;;840.27;;
22768;SDS011;13001;51.968;5.918;2022-11-20T04:03:14;897.77;;;817.37;;
22768;SDS011;13001;51.968;5.918;2022-11-20T04:05:41;911.23;;;829.23;;
22768;SDS011;13001;51.968;5.918;2022-11-20T04:08:08;937.27;;;850.73;;
22768;SDS011;13001;51.968;5.918;2022-11-20T04:10:35;922.03;;;838.57;;
22768;SDS011;13001;51.968;5.918;2022-11-20T04:13:05;941.10;;;853.40;;
22768;SDS011;13001;51.968;5.918;2022-11-20T04:15:32;945.00;;;857.17;;
22768;SDS011;13001;51.968;5.918;2022-11-20T04:17:59;891.83;;;812.57;;
22768;SDS011;13001;51.968;5.918;2022-11-20T04:20:26;929.00;;;843.97;;
22768;SDS011;13001;51.968;5.918;2022-11-20T04:22:54;907.97;;;826.33;;
22768;SDS011;13001;51.968;5.918;2022-11-20T04:25:21;885.57;;;808.43;;
22768;SDS011;13001;51.968;5.918;2022-11-20T04:27:48;878.87;;;801.97;;
22768;SDS011;13001;51.968;5.918;2022-11-20T04:30:15;882.53;;;805.70;;
22768;SDS011;13001;51.968;5.918;2022-11-20T04:32:43;881.47;;;805.03;;
22768;SDS011;13001;51.968;5.918;2022-11-20T04:35:10;835.57;;;765.70;;
22768;SDS011;13001;51.968;5.918;2022-11-20T04:37:37;845.30;;;772.60;;
22768;SDS011;13001;51.968;5.918;2022-11-20T04:40:05;854.43;;;780.07;;
22768;SDS011;13001;51.968;5.918;2022-11-20T04:42:32;862.70;;;788.17;;
22768;SDS011;13001;51.968;5.918;2022-11-20T04:44:59;837.47;;;766.37;;
22768;SDS011;13001;51.968;5.918;2022-11-20T04:47:26;849.33;;;776.17;;
22768;SDS011;13001;51.968;5.918;2022-11-20T04:49:54;838.73;;;766.40;;
22768;SDS011;13001;51.968;5.918;2022-11-20T04:52:21;829.10;;;759.37;;
22768;SDS011;13001;51.968;5.918;2022-11-20T04:54:48;859.37;;;784.50;;
22768;SDS011;13001;51.968;5.918;2022-11-20T04:57:17;901.03;;;820.93;;
22768;SDS011;13001;51.968;5.918;2022-11-20T04:59:44;880.80;;;803.20;;
22768;SDS011;13001;51.968;5.918;2022-11-20T05:02:12;884.10;;;805.73;;
22768;SDS011;13001;51.968;5.918;2022-11-20T05:04:39;905.10;;;823.93;;
22768;SDS011;13001;51.968;5.918;2022-11-20T05:07:06;862.10;;;787.53;;
22768;SDS011;13001;51.968;5.918;2022-11-20T05:09:33;877.97;;;800.73;;
22768;SDS011;13001;51.968;5.918;2022-11-20T05:12:01;846.30;;;774.43;;
22768;SDS011;13001;51.968;5.918;2022-11-20T05:14:28;830.70;;;760.70;;
22768;SDS011;13001;51.968;5.918;2022-11-20T05:16:55;834.77;;;763.93;;
22768;SDS011;13001;51.968;5.918;2022-11-20T05:19:22;795.20;;;729.93;;
22768;SDS011;13001;51.968;5.918;2022-11-20T05:21:50;773.50;;;710.23;;
22768;SDS011;13001;51.968;5.918;2022-11-20T05:24:17;753.83;;;692.37;;
22768;SDS011;13001;51.968;5.918;2022-11-20T05:26:44;736.93;;;676.57;;
22768;SDS011;13001;51.968;5.918;2022-11-20T05:29:12;714.50;;;656.43;;
22768;SDS011;13001;51.968;5.918;2022-11-20T05:31:39;685.47;;;629.80;;
22768;SDS011;13001;51.968;5.918;2022-11-20T05:34:07;660.60;;;607.80;;
22768;SDS011;13001;51.968;5.918;2022-11-20T05:36:35;638.83;;;590.63;;
22768;SDS011;13001;51.968;5.918;2022-11-20T05:39:02;628.73;;;582.63;;
22768;SDS011;13001;51.968;5.918;2022-11-20T05:41:29;631.20;;;585.03;;
22768;SDS011;13001;51.968;5.918;2022-11-20T05:43:56;615.33;;;570.63;;
22768;SDS011;13001;51.968;5.918;2022-11-20T05:46:24;629.77;;;583.73;;
22768;SDS011;13001;51.968;5.918;2022-11-20T05:48:52;628.47;;;583.17;;
22768;SDS011;13001;51.968;5.918;2022-11-20T05:51:19;623.93;;;578.70;;
22768;SDS011;13001;51.968;5.918;2022-11-20T05:53:48;612.33;;;568.30;;
22768;SDS011;13001;51.968;5.918;2022-11-20T05:56:16;624.57;;;578.77;;
22768;SDS011;13001;51.968;5.918;2022-11-20T05:58:44;623.10;;;576.87;;
22768;SDS011;13001;51.968;5.918;2022-11-20T06:01:19;635.50;;;587.43;;
22768;SDS011;13001;51.968;5.918;2022-11-20T06:03:43;639.60;;;591.97;;
22768;SDS011;13001;51.968;5.918;2022-11-20T06:06:12;641.73;;;594.00;;
22768;SDS011;13001;51.968;5.918;2022-11-20T06:08:40;674.97;;;624.37;;
22768;SDS011;13001;51.968;5.918;2022-11-20T06:11:08;671.40;;;621.37;;
22768;SDS011;13001;51.968;5.918;2022-11-20T06:13:36;650.63;;;602.67;;
22768;SDS011;13001;51.968;5.918;2022-11-20T06:16:03;681.50;;;631.40;;
22768;SDS011;13001;51.968;5.918;2022-11-20T06:18:31;664.83;;;616.30;;
22768;SDS011;13001;51.968;5.918;2022-11-20T06:20:59;643.77;;;596.37;;
22768;SDS011;13001;51.968;5.918;2022-11-20T06:23:27;636.83;;;589.83;;
22768;SDS011;13001;51.968;5.918;2022-11-20T06:25:54;626.47;;;580.57;;
22768;SDS011;13001;51.968;5.918;2022-11-20T06:28:22;634.80;;;587.93;;
22768;SDS011;13001;51.968;5.918;2022-11-20T06:30:49;656.33;;;607.70;;
22768;SDS011;13001;51.968;5.918;2022-11-20T06:33:16;653.40;;;605.00;;
22768;SDS011;13001;51.968;5.918;2022-11-20T06:35:43;668.93;;;619.13;;
22768;SDS011;13001;51.968;5.918;2022-11-20T06:38:11;644.93;;;597.13;;
22768;SDS011;13001;51.968;5.918;2022-11-20T06:40:41;627.50;;;581.30;;
22768;SDS011;13001;51.968;5.918;2022-11-20T06:43:09;618.67;;;573.40;;
22768;SDS011;13001;51.968;5.918;2022-11-20T06:45:36;603.80;;;559.77;;
22768;SDS011;13001;51.968;5.918;2022-11-20T06:48:04;629.57;;;583.23;;
22768;SDS011;13001;51.968;5.918;2022-11-20T06:50:31;607.20;;;563.30;;
22768;SDS011;13001;51.968;5.918;2022-11-20T06:53:01;612.93;;;568.20;;
22768;SDS011;13001;51.968;5.918;2022-11-20T06:55:30;634.13;;;588.07;;
22768;SDS011;13001;51.968;5.918;2022-11-20T06:57:57;640.03;;;593.33;;
22768;SDS011;13001;51.968;5.918;2022-11-20T07:00:25;635.27;;;588.63;;
22768;SDS011;13001;51.968;5.918;2022-11-20T07:02:52;643.17;;;596.03;;
22768;SDS011;13001;51.968;5.918;2022-11-20T07:05:19;648.43;;;600.87;;
22768;SDS011;13001;51.968;5.918;2022-11-20T07:07:46;638.60;;;591.77;;
22768;SDS011;13001;51.968;5.918;2022-11-20T07:10:14;648.23;;;600.80;;
22768;SDS011;13001;51.968;5.918;2022-11-20T07:12:41;632.43;;;586.03;;
22768;SDS011;13001;51.968;5.918;2022-11-20T07:15:08;608.43;;;564.30;;
22768;SDS011;13001;51.968;5.918;2022-11-20T07:17:39;618.07;;;573.53;;
22768;SDS011;13001;51.968;5.918;2022-11-20T07:20:06;621.13;;;576.17;;
22768;SDS011;13001;51.968;5.918;2022-11-20T07:22:33;625.73;;;579.90;;
22768;SDS011;13001;51.968;5.918;2022-11-20T07:25:01;628.07;;;582.60;;
22768;SDS011;13001;51.968;5.918;2022-11-20T07:27:29;609.33;;;565.33;;
22768;SDS011;13001;51.968;5.918;2022-11-20T07:29:56;583.70;;;542.00;;
22768;SDS011;13001;51.968;5.918;2022-11-20T07:32:23;524.40;;;489.07;;
22768;SDS011;13001;51.968;5.918;2022-11-20T07:34:51;533.97;;;497.93;;
22768;SDS011;13001;51.968;5.918;2022-11-20T07:37:18;762.52;;;706.75;;
22768;SDS011;13001;51.968;5.918;2022-11-20T07:39:46;490.07;;;453.37;;
22768;SDS011;13001;51.968;5.918;2022-11-20T07:42:15;658.00;;;603.47;;
22768;SDS011;13001;51.968;5.918;2022-11-20T07:44:42;688.60;;;630.67;;
22768;SDS011;13001;51.968;5.918;2022-11-20T07:47:10;716.73;;;657.70;;
22768;SDS011;13001;51.968;5.918;2022-11-20T07:49:37;806.40;;;738.57;;
22768;SDS011;13001;51.968;5.918;2022-11-20T07:52:05;852.37;;;776.70;;
22768;SDS011;13001;51.968;5.918;2022-11-20T07:54:32;896.07;;;814.80;;
22768;SDS011;13001;51.968;5.918;2022-11-20T07:57:00;881.73;;;800.87;;
22768;SDS011;13001;51.968;5.918;2022-11-20T07:59:27;917.73;;;831.47;;
22768;SDS011;13001;51.968;5.918;2022-11-20T08:01:55;933.13;;;843.43;;
22768;SDS011;13001;51.968;5.918;2022-11-20T08:04:22;921.43;;;834.07;;
22768;SDS011;13001;51.968;5.918;2022-11-20T08:06:51;810.60;;;739.27;;
22768;SDS011;13001;51.968;5.918;2022-11-20T08:09:19;798.83;;;729.33;;
22768;SDS011;13001;51.968;5.918;2022-11-20T08:11:46;847.15;;;781.35;;
22768;SDS011;13001;51.968;5.918;2022-11-20T08:14:32;218.03;;;204.33;;
22768;SDS011;13001;51.968;5.918;2022-11-20T08:16:59;192.27;;;179.63;;
22768;SDS011;13001;51.968;5.918;2022-11-20T08:19:27;231.87;;;215.93;;
22768;SDS011;13001;51.968;5.918;2022-11-20T08:21:55;232.83;;;217.57;;
22768;SDS011;13001;51.968;5.918;2022-11-20T08:24:22;319.10;;;297.00;;
22768;SDS011;13001;51.968;5.918;2022-11-20T08:26:52;285.93;;;266.50;;
22768;SDS011;13001;51.968;5.918;2022-11-20T08:29:19;290.17;;;270.50;;
22768;SDS011;13001;51.968;5.918;2022-11-20T08:31:47;329.53;;;307.53;;
22768;SDS011;13001;51.968;5.918;2022-11-20T08:34:15;586.13;;;542.37;;
22768;SDS011;13001;51.968;5.918;2022-11-20T08:36:42;690.23;;;635.43;;
22768;SDS011;13001;51.968;5.918;2022-11-20T08:39:13;729.33;;;669.77;;
22768;SDS011;13001;51.968;5.918;2022-11-20T08:41:40;733.10;;;672.90;;
22768;SDS011;13001;51.968;5.918;2022-11-20T08:44:08;724.93;;;666.03;;
22768;SDS011;13001;51.968;5.918;2022-11-20T08:46:39;767.53;;;704.90;;
22768;SDS011;13001;51.968;5.918;2022-11-20T08:49:11;782.13;;;718.77;;
22768;SDS011;13001;51.968;5.918;2022-11-20T08:51:40;798.50;;;734.70;;
22768;SDS011;13001;51.968;5.918;2022-11-20T08:54:08;771.50;;;711.00;;
22768;SDS011;13001;51.968;5.918;2022-11-20T08:56:36;652.20;;;602.63;;
22768;SDS011;13001;51.968;5.918;2022-11-20T08:59:03;651.40;;;602.83;;
22768;SDS011;13001;51.968;5.918;2022-11-20T09:01:33;614.30;;;567.30;;
22768;SDS011;13001;51.968;5.918;2022-11-20T09:04:01;542.30;;;502.40;;
22768;SDS011;13001;51.968;5.918;2022-11-20T09:06:30;484.20;;;449.90;;
22768;SDS011;13001;51.968;5.918;2022-11-20T09:08:57;487.70;;;453.33;;
22768;SDS011;13001;51.968;5.918;2022-11-20T09:11:25;569.07;;;526.37;;
22768;SDS011;13001;51.968;5.918;2022-11-20T09:13:52;610.57;;;563.17;;
22768;SDS011;13001;51.968;5.918;2022-11-20T09:16:20;577.13;;;533.00;;
22768;SDS011;13001;51.968;5.918;2022-11-20T09:18:49;637.83;;;587.60;;
22768;SDS011;13001;51.968;5.918;2022-11-20T09:21:17;685.07;;;631.67;;
22768;SDS011;13001;51.968;5.918;2022-11-20T09:23:44;707.13;;;651.30;;
22768;SDS011;13001;51.968;5.918;2022-11-20T09:26:13;676.67;;;623.93;;
22768;SDS011;13001;51.968;5.918;2022-11-20T09:28:41;647.03;;;596.80;;
22768;SDS011;13001;51.968;5.918;2022-11-20T09:31:13;649.80;;;598.80;;
22768;SDS011;13001;51.968;5.918;2022-11-20T09:33:42;641.57;;;591.63;;
22768;SDS011;13001;51.968;5.918;2022-11-20T09:36:11;678.40;;;626.43;;
22768;SDS011;13001;51.968;5.918;2022-11-20T09:38:41;698.23;;;644.60;;
22768;SDS011;13001;51.968;5.918;2022-11-20T09:46:33;767.60;;;705.33;;
22768;SDS011;13001;51.968;5.918;2022-11-20T09:51:47;711.40;;;655.00;;
22768;SDS011;13001;51.968;5.918;2022-11-20T09:54:31;695.17;;;640.07;;
22768;SDS011;13001;51.968;5.918;2022-11-20T09:57:11;616.97;;;568.60;;
22768;SDS011;13001;51.968;5.918;2022-11-20T09:59:46;578.57;;;533.57;;
22768;SDS011;13001;51.968;5.918;2022-11-20T10:04:59;494.23;;;457.57;;
22768;SDS011;13001;51.968;5.918;2022-11-20T10:08:28;430.30;;;398.10;;
22768;SDS011;13001;51.968;5.918;2022-11-20T10:10:16;436.90;;;404.30;;
22768;SDS011;13001;51.968;5.918;2022-11-20T10:26:22;422.57;;;392.50;;
22768;SDS011;13001;51.968;5.918;2022-11-20T10:31:36;368.80;;;342.20;;
22768;SDS011;13001;51.968;5.918;2022-11-20T10:36:55;363.67;;;336.97;;
22768;SDS011;13001;51.968;5.918;2022-11-20T10:39:35;377.47;;;350.77;;
22768;SDS011;13001;51.968;5.918;2022-11-20T10:42:15;388.80;;;360.90;;
22768;SDS011;13001;51.968;5.918;2022-11-20T10:44:47;389.13;;;361.17;;
22768;SDS011;13001;51.968;5.918;2022-11-20T10:47:29;400.17;;;370.23;;
22768;SDS011;13001;51.968;5.918;2022-11-20T10:49:58;376.83;;;349.23;;
22768;SDS011;13001;51.968;5.918;2022-11-20T10:52:48;348.83;;;324.13;;
22768;SDS011;13001;51.968;5.918;2022-11-20T11:00:30;417.20;;;387.43;;
22768;SDS011;13001;51.968;5.918;2022-11-20T11:02:59;404.43;;;375.17;;
22768;SDS011;13001;51.968;5.918;2022-11-20T11:05:48;314.33;;;292.90;;
22768;SDS011;13001;51.968;5.918;2022-11-20T11:08:17;389.13;;;362.30;;
22768;SDS011;13001;51.968;5.918;2022-11-20T11:10:47;416.47;;;387.20;;
22768;SDS011;13001;51.968;5.918;2022-11-20T11:13:25;391.07;;;363.47;;
22768;SDS011;13001;51.968;5.918;2022-11-20T11:15:49;386.63;;;358.97;;
22768;SDS011;13001;51.968;5.918;2022-11-20T11:18:31;366.00;;;339.47;;
22768;SDS011;13001;51.968;5.918;2022-11-20T11:21:02;384.30;;;355.90;;
22768;SDS011;13001;51.968;5.918;2022-11-20T11:26:06;400.50;;;371.17;;
22768;SDS011;13001;51.968;5.918;2022-11-20T11:28:35;401.80;;;373.97;;
22768;SDS011;13001;51.968;5.918;2022-11-20T11:31:02;462.43;;;429.97;;
22768;SDS011;13001;51.968;5.918;2022-11-20T11:33:31;479.87;;;444.90;;
22768;SDS011;13001;51.968;5.918;2022-11-20T11:36:15;470.13;;;435.73;;
22768;SDS011;13001;51.968;5.918;2022-11-20T11:38:34;506.37;;;468.87;;
22768;SDS011;13001;51.968;5.918;2022-11-20T11:41:03;517.47;;;479.43;;
22768;SDS011;13001;51.968;5.918;2022-11-20T11:43:33;481.37;;;445.47;;
22768;SDS011;13001;51.968;5.918;2022-11-20T11:48:55;521.97;;;483.20;;
22768;SDS011;13001;51.968;5.918;2022-11-20T11:51:38;491.07;;;454.53;;
22768;SDS011;13001;51.968;5.918;2022-11-20T11:54:21;507.07;;;469.27;;
22768;SDS011;13001;51.968;5.918;2022-11-20T11:56:47;550.97;;;508.43;;
22768;SDS011;13001;51.968;5.918;2022-11-20T12:03:03;554.90;;;511.77;;
22768;SDS011;13001;51.968;5.918;2022-11-20T12:05:09;566.83;;;521.93;;
22768;SDS011;13001;51.968;5.918;2022-11-20T12:07:39;601.50;;;553.77;;
22768;SDS011;13001;51.968;5.918;2022-11-20T12:10:17;275.00;;;255.20;;
22768;SDS011;13001;51.968;5.918;2022-11-20T12:12:53;503.60;;;464.03;;
22768;SDS011;13001;51.968;5.918;2022-11-20T12:15:28;577.63;;;532.63;;
22768;SDS011;13001;51.968;5.918;2022-11-20T12:17:53;588.90;;;543.27;;
22768;SDS011;13001;51.968;5.918;2022-11-20T12:20:22;521.10;;;480.67;;
22768;SDS011;13001;51.968;5.918;2022-11-20T12:22:55;552.73;;;511.13;;
22768;SDS011;13001;51.968;5.918;2022-11-20T12:25:32;484.23;;;448.03;;
22768;SDS011;13001;51.968;5.918;2022-11-20T12:28:27;511.67;;;473.20;;
22768;SDS011;13001;51.968;5.918;2022-11-20T12:34:13;507.20;;;469.73;;
22768;SDS011;13001;51.968;5.918;2022-11-20T12:36:57;570.47;;;527.77;;
22768;SDS011;13001;51.968;5.918;2022-11-20T12:39:33;624.30;;;576.03;;
22768;SDS011;13001;51.968;5.918;2022-11-20T12:53:33;577.30;;;533.73;;
22768;SDS011;13001;51.968;5.918;2022-11-20T12:59:27;562.50;;;520.57;;
22768;SDS011;13001;51.968;5.918;2022-11-20T13:05:03;545.17;;;504.20;;
22768;SDS011;13001;51.968;5.918;2022-11-20T13:07:29;632.63;;;584.77;;
22768;SDS011;13001;51.968;5.918;2022-11-20T13:09:58;546.50;;;505.60;;
22768;SDS011;13001;51.968;5.918;2022-11-20T13:12:39;607.10;;;561.67;;
22768;SDS011;13001;51.968;5.918;2022-11-20T13:17:55;505.03;;;467.57;;
22768;SDS011;13001;51.968;5.918;2022-11-20T13:20:24;601.90;;;557.20;;
22768;SDS011;13001;51.968;5.918;2022-11-20T13:22:54;576.03;;;533.23;;
22768;SDS011;13001;51.968;5.918;2022-11-20T13:25:26;640.67;;;593.57;;
22768;SDS011;13001;51.968;5.918;2022-11-20T13:27:56;627.90;;;581.30;;
22768;SDS011;13001;51.968;5.918;2022-11-20T13:30:26;568.93;;;526.67;;
22768;SDS011;13001;51.968;5.918;2022-11-20T13:33:22;586.70;;;543.33;;
22768;SDS011;13001;51.968;5.918;2022-11-20T13:36:03;687.57;;;637.20;;
22768;SDS011;13001;51.968;5.918;2022-11-20T13:41:38;565.70;;;524.47;;
22768;SDS011;13001;51.968;5.918;2022-11-20T13:46:42;687.20;;;634.77;;
22768;SDS011;13001;51.968;5.918;2022-11-20T13:49:20;656.20;;;606.77;;
22768;SDS011;13001;51.968;5.918;2022-11-20T13:51:46;643.97;;;596.23;;
22768;SDS011;13001;51.968;5.918;2022-11-20T13:54:22;671.20;;;620.87;;
22768;SDS011;13001;51.968;5.918;2022-11-20T13:57:05;645.97;;;598.87;;
22768;SDS011;13001;51.968;5.918;2022-11-20T14:02:02;668.93;;;619.93;;
22768;SDS011;13001;51.968;5.918;2022-11-20T14:04:33;650.97;;;603.30;;
22768;SDS011;13001;51.968;5.918;2022-11-20T14:07:05;661.03;;;612.10;;
22768;SDS011;13001;51.968;5.918;2022-11-20T14:09:33;562.43;;;521.50;;
22768;SDS011;13001;51.968;5.918;2022-11-20T14:12:02;627.70;;;582.40;;
22768;SDS011;13001;51.968;5.918;2022-11-20T14:14:31;560.17;;;518.80;;
22768;SDS011;13001;51.968;5.918;2022-11-20T14:17:17;623.23;;;577.80;;
22768;SDS011;13001;51.968;5.918;2022-11-20T14:19:35;644.43;;;596.63;;
22768;SDS011;13001;51.968;5.918;2022-11-20T14:22:08;635.77;;;589.17;;
22768;SDS011;13001;51.968;5.918;2022-11-20T14:24:38;589.13;;;546.13;;
22768;SDS011;13001;51.968;5.918;2022-11-20T14:27:17;591.57;;;548.43;;
22768;SDS011;13001;51.968;5.918;2022-11-20T14:29:46;572.47;;;529.53;;
22768;SDS011;13001;51.968;5.918;2022-11-20T14:32:17;596.50;;;551.50;;
22768;SDS011;13001;51.968;5.918;2022-11-20T14:37:38;293.47;;;270.47;;
22768;SDS011;13001;51.968;5.918;2022-11-20T14:40:32;557.50;;;516.43;;
22768;SDS011;13001;51.968;5.918;2022-11-20T14:42:51;649.97;;;601.47;;
22768;SDS011;13001;51.968;5.918;2022-11-20T14:45:19;574.57;;;532.73;;
22768;SDS011;13001;51.968;5.918;2022-11-20T14:47:48;623.37;;;577.50;;
22768;SDS011;13001;51.968;5.918;2022-11-20T14:50:28;507.83;;;470.60;;
22768;SDS011;13001;51.968;5.918;2022-11-20T14:52:59;566.23;;;524.70;;
22768;SDS011;13001;51.968;5.918;2022-11-20T14:55:28;546.00;;;506.70;;
22768;SDS011;13001;51.968;5.918;2022-11-20T14:57:58;592.10;;;548.60;;
22768;SDS011;13001;51.968;5.918;2022-11-20T15:00:28;551.73;;;511.00;;
22768;SDS011;13001;51.968;5.918;2022-11-20T15:02:57;547.27;;;507.67;;
22768;SDS011;13001;51.968;5.918;2022-11-20T15:05:45;533.53;;;494.73;;
22768;SDS011;13001;51.968;5.918;2022-11-20T15:08:16;625.07;;;579.53;;
22768;SDS011;13001;51.968;5.918;2022-11-20T15:10:50;625.97;;;578.53;;
22768;SDS011;13001;51.968;5.918;2022-11-20T15:13:16;610.47;;;564.97;;
22768;SDS011;13001;51.968;5.918;2022-11-20T15:15:51;592.83;;;548.17;;
22768;SDS011;13001;51.968;5.918;2022-11-20T15:18:26;635.60;;;586.60;;
22768;SDS011;13001;51.968;5.918;2022-11-20T15:20:51;567.07;;;523.53;;
22768;SDS011;13001;51.968;5.918;2022-11-20T15:23:20;188.73;;;173.63;;
22768;SDS011;13001;51.968;5.918;2022-11-20T15:25:49;577.13;;;532.43;;
22768;SDS011;13001;51.968;5.918;2022-11-20T15:28:23;672.93;;;620.27;;
22768;SDS011;13001;51.968;5.918;2022-11-20T15:30:49;186.70;;;171.13;;